Time;durP1;ratioP1;P1;durP2;ratioP2;P2;SDS_P1;SDS_P2;PMS_P1;PMS_P2;Temp;Humidity;BMP_temperature;BMP_pressure;BME280_temperature;BME280_humidity;BME280_pressure;Samples;Min_cycle;Max_cycle;Signal;HPM_P1;HPM_P2
2023/07/29 00:00:44;;;;;;;7.90;6.87;;;;;;;;;;5051434;28;20482;-52
2023/07/29 00:03:10;;;;;;;7.23;6.63;;;;;;;;;;5052293;28;20439;-49
2023/07/29 00:05:39;;;;;;;6.87;6.37;;;;;;;;;;5052129;28;20439;-50
2023/07/29 00:08:06;;;;;;;7.40;6.90;;;;;;;;;;5052297;28;20886;-52
2023/07/29 00:10:32;;;;;;;7.40;6.80;;;;;;;;;;5052079;28;20462;-52
2023/07/29 00:12:58;;;;;;;7.80;6.33;;;;;;;;;;5052245;28;20517;-51
2023/07/29 00:15:24;;;;;;;6.17;5.57;;;;;;;;;;5051611;28;20899;-51
2023/07/29 00:17:50;;;;;;;7.30;6.70;;;;;;;;;;5052064;28;20957;-51
2023/07/29 00:20:16;;;;;;;6.90;6.40;;;;;;;;;;5051646;28;20431;-50
2023/07/29 00:22:42;;;;;;;5.47;4.97;;;;;;;;;;5052010;28;20566;-50
2023/07/29 00:25:08;;;;;;;5.60;5.20;;;;;;;;;;5051963;28;20428;-49
2023/07/29 00:27:34;;;;;;;6.80;5.37;;;;;;;;;;5052382;28;20415;-51
2023/07/29 00:30:00;;;;;;;7.20;6.10;;;;;;;;;;5051723;28;20428;-52
2023/07/29 00:32:28;;;;;;;6.23;5.73;;;;;;;;;;5051734;28;20537;-52
2023/07/29 00:34:53;;;;;;;6.30;5.77;;;;;;;;;;5051870;28;20416;-50
2023/07/29 00:37:19;;;;;;;6.80;6.23;;;;;;;;;;5051819;28;20426;-51
2023/07/29 00:39:45;;;;;;;6.30;5.90;;;;;;;;;;5051538;28;20432;-49
2023/07/29 00:42:11;;;;;;;6.10;5.70;;;;;;;;;;5051285;28;20424;-52
2023/07/29 00:44:37;;;;;;;6.70;5.50;;;;;;;;;;5051712;28;20490;-51
2023/07/29 00:47:05;;;;;;;6.20;5.80;;;;;;;;;;5051611;28;20408;-51
2023/07/29 00:49:31;;;;;;;6.63;6.13;;;;;;;;;;5051387;28;20436;-51
2023/07/29 00:51:57;;;;;;;6.53;5.93;;;;;;;;;;5051512;28;20562;-49
2023/07/29 00:54:23;;;;;;;9.50;6.60;;;;;;;;;;5051498;28;20429;-49
2023/07/29 00:56:49;;;;;;;6.87;6.37;;;;;;;;;;5051202;28;20407;-50
2023/07/29 00:59:15;;;;;;;6.43;6.03;;;;;;;;;;5051515;28;20424;-50
2023/07/29 01:01:41;;;;;;;6.20;5.70;;;;;;;;;;5047108;28;20412;-52
2023/07/29 01:04:07;;;;;;;6.43;5.93;;;;;;;;;;5050917;28;20417;-51
2023/07/29 01:06:33;;;;;;;6.17;5.80;;;;;;;;;;5055972;28;20421;-52
2023/07/29 01:09:03;;;;;;;6.80;6.30;;;;;;;;;;5058110;28;20381;-52
2023/07/29 01:11:42;;;;;;;6.00;5.50;;;;;;;;;;5057444;28;20518;-51
2023/07/29 01:14:18;;;;;;;6.63;6.10;;;;;;;;;;5057979;28;20444;-51
2023/07/29 01:16:47;;;;;;;7.53;6.17;;;;;;;;;;5054392;28;20892;-52
2023/07/29 01:19:25;;;;;;;6.73;6.07;;;;;;;;;;5057936;28;20435;-49
2023/07/29 01:21:52;;;;;;;6.57;6.00;;;;;;;;;;5051421;28;20443;-49
2023/07/29 01:24:18;;;;;;;10.00;6.17;;;;;;;;;;5057332;28;20419;-49
2023/07/29 01:26:44;;;;;;;7.27;6.57;;;;;;;;;;5057910;28;20952;-48
2023/07/29 01:29:10;;;;;;;6.23;5.63;;;;;;;;;;5054000;28;20494;-49
2023/07/29 01:31:41;;;;;;;6.50;6.00;;;;;;;;;;5057001;28;20514;-50
2023/07/29 01:34:10;;;;;;;6.47;5.97;;;;;;;;;;5057954;28;20917;-51
2023/07/29 01:36:40;;;;;;;7.53;6.37;;;;;;;;;;5057809;28;20400;-52
2023/07/29 01:39:08;;;;;;;5.70;5.30;;;;;;;;;;5057307;28;20939;-52
2023/07/29 01:41:34;;;;;;;6.10;5.60;;;;;;;;;;5057643;28;20424;-51
2023/07/29 01:44:00;;;;;;;5.73;5.23;;;;;;;;;;5057856;28;20407;-52
2023/07/29 01:46:26;;;;;;;6.13;5.63;;;;;;;;;;5058422;28;20427;-50
2023/07/29 01:48:52;;;;;;;5.50;5.10;;;;;;;;;;5057744;28;20794;-51
2023/07/29 01:51:18;;;;;;;5.90;5.40;;;;;;;;;;5057044;28;20430;-51
2023/07/29 01:53:44;;;;;;;10.20;5.20;;;;;;;;;;5057777;28;20491;-50
2023/07/29 01:56:10;;;;;;;5.40;5.00;;;;;;;;;;5057814;28;20886;-50
2023/07/29 01:58:36;;;;;;;8.83;5.07;;;;;;;;;;5057706;28;20414;-52
2023/07/29 02:01:02;;;;;;;5.00;4.60;;;;;;;;;;5057638;28;20424;-52
2023/07/29 02:03:28;;;;;;;5.97;5.53;;;;;;;;;;5057499;28;20412;-52
2023/07/29 02:05:54;;;;;;;4.47;4.17;;;;;;;;;;5057430;28;20479;-51
2023/07/29 02:08:20;;;;;;;4.90;4.50;;;;;;;;;;5055723;28;20391;-51
2023/07/29 02:10:48;;;;;;;6.13;4.20;;;;;;;;;;5057607;28;20772;-51
2023/07/29 02:13:14;;;;;;;4.60;4.23;;;;;;;;;;5054378;28;20427;-51
2023/07/29 02:15:40;;;;;;;4.00;3.70;;;;;;;;;;5057672;28;20451;-50
2023/07/29 02:18:07;;;;;;;4.60;4.30;;;;;;;;;;5054092;28;20819;-50
2023/07/29 02:20:33;;;;;;;4.70;4.40;;;;;;;;;;5053667;28;20435;-51
2023/07/29 02:22:59;;;;;;;4.63;4.23;;;;;;;;;;5054285;28;20387;-50
2023/07/29 02:25:25;;;;;;;4.60;4.30;;;;;;;;;;5044415;28;20477;-49
2023/07/29 02:27:50;;;;;;;5.07;4.67;;;;;;;;;;5049982;28;20383;-52
2023/07/29 02:30:16;;;;;;;4.97;4.57;;;;;;;;;;5053932;28;20522;-51
2023/07/29 02:32:42;;;;;;;5.07;4.27;;;;;;;;;;5047170;28;20463;-51
2023/07/29 02:35:09;;;;;;;5.00;4.60;;;;;;;;;;5053944;28;20909;-52
2023/07/29 02:37:35;;;;;;;5.43;4.60;;;;;;;;;;5057344;28;20413;-51
2023/07/29 02:40:02;;;;;;;5.33;4.90;;;;;;;;;;5054018;28;20508;-51
2023/07/29 02:42:27;;;;;;;5.50;5.00;;;;;;;;;;5053875;28;20390;-50
2023/07/29 02:44:53;;;;;;;4.60;4.30;;;;;;;;;;5049710;28;20417;-51
2023/07/29 02:47:19;;;;;;;5.03;4.63;;;;;;;;;;5051418;28;20451;-51
2023/07/29 02:49:45;;;;;;;4.90;4.50;;;;;;;;;;5053433;28;20907;-51
2023/07/29 02:52:11;;;;;;;5.07;4.67;;;;;;;;;;5053824;28;20457;-51
2023/07/29 02:54:37;;;;;;;6.57;4.40;;;;;;;;;;5053825;28;20411;-49
2023/07/29 02:57:04;;;;;;;5.50;5.03;;;;;;;;;;5053760;28;20415;-51
2023/07/29 02:59:29;;;;;;;5.10;4.70;;;;;;;;;;5053517;28;20490;-51
2023/07/29 03:01:56;;;;;;;18.43;6.00;;;;;;;;;;5053372;28;20390;-52
2023/07/29 03:04:23;;;;;;;104.57;8.00;;;;;;;;;;5053278;28;20515;-52
2023/07/29 03:06:49;;;;;;;5.17;4.77;;;;;;;;;;5053590;28;20448;-51
2023/07/29 03:09:15;;;;;;;69.47;6.07;;;;;;;;;;5050210;28;20848;-50
2023/07/29 03:11:41;;;;;;;4.97;4.57;;;;;;;;;;5053381;28;20842;-50
2023/07/29 03:14:07;;;;;;;10.80;5.10;;;;;;;;;;5053363;28;20452;-51
2023/07/29 03:16:33;;;;;;;5.10;4.70;;;;;;;;;;5053298;28;20445;-51
2023/07/29 03:19:00;;;;;;;5.93;5.10;;;;;;;;;;5053151;28;20878;-51
2023/07/29 03:21:26;;;;;;;4.87;4.50;;;;;;;;;;5049597;28;20421;-50
2023/07/29 03:23:52;;;;;;;6.70;4.83;;;;;;;;;;5053271;28;20404;-51
2023/07/29 03:26:18;;;;;;;6.23;4.53;;;;;;;;;;5053089;28;20452;-49
2023/07/29 03:28:44;;;;;;;6.50;6.00;;;;;;;;;;5053080;28;20439;-51
2023/07/29 03:31:11;;;;;;;5.60;5.20;;;;;;;;;;5052686;28;20503;-51
2023/07/29 03:33:37;;;;;;;5.70;5.30;;;;;;;;;;5051098;28;20417;-51
2023/07/29 03:36:03;;;;;;;5.83;5.43;;;;;;;;;;5052881;28;20926;-49
2023/07/29 03:38:29;;;;;;;8.37;5.90;;;;;;;;;;5047986;28;20408;-51
2023/07/29 03:40:55;;;;;;;5.60;5.20;;;;;;;;;;5052692;28;20410;-52
2023/07/29 03:43:21;;;;;;;6.53;5.93;;;;;;;;;;5052834;28;20884;-52
2023/07/29 03:45:47;;;;;;;5.70;5.20;;;;;;;;;;5052826;28;20466;-50
2023/07/29 03:48:13;;;;;;;5.63;5.23;;;;;;;;;;5051143;28;20390;-51
2023/07/29 03:50:39;;;;;;;6.27;5.77;;;;;;;;;;5052457;28;20494;-50
2023/07/29 03:53:05;;;;;;;6.30;5.90;;;;;;;;;;5052597;28;20472;-49
2023/07/29 03:55:32;;;;;;;14.47;5.47;;;;;;;;;;5045912;28;20417;-50
2023/07/29 03:57:58;;;;;;;12.63;5.93;;;;;;;;;;5052549;28;20390;-51
2023/07/29 04:00:24;;;;;;;5.90;5.50;;;;;;;;;;5050726;28;20447;-50
2023/07/29 04:02:50;;;;;;;6.07;5.50;;;;;;;;;;5052415;28;20412;-51
2023/07/29 04:05:16;;;;;;;5.17;4.77;;;;;;;;;;5049308;28;20909;-51
2023/07/29 04:07:43;;;;;;;6.07;5.50;;;;;;;;;;5052419;28;20415;-51
2023/07/29 04:10:09;;;;;;;8.70;6.27;;;;;;;;;;5052145;28;20428;-52
2023/07/29 04:12:35;;;;;;;9.77;6.27;;;;;;;;;;5052106;28;20809;-51
2023/07/29 04:15:01;;;;;;;7.40;5.73;;;;;;;;;;5050729;28;20514;-51
2023/07/29 04:17:27;;;;;;;7.10;5.90;;;;;;;;;;5052014;28;20419;-49
2023/07/29 04:19:52;;;;;;;6.30;5.70;;;;;;;;;;5051899;28;20499;-51
2023/07/29 04:22:18;;;;;;;9.20;5.90;;;;;;;;;;5052112;28;20466;-51
2023/07/29 04:24:44;;;;;;;6.93;5.70;;;;;;;;;;5045627;28;20413;-52
2023/07/29 04:27:10;;;;;;;8.00;6.10;;;;;;;;;;5052128;28;20455;-51
2023/07/29 04:29:36;;;;;;;6.90;6.30;;;;;;;;;;5051010;28;20527;-50
2023/07/29 04:32:03;;;;;;;7.00;6.50;;;;;;;;;;5051732;28;20463;-51
2023/07/29 04:34:29;;;;;;;15.13;7.83;;;;;;;;;;5051792;28;20514;-52
2023/07/29 04:36:55;;;;;;;7.17;6.47;;;;;;;;;;5052132;28;20443;-51
2023/07/29 04:39:21;;;;;;;12.87;7.13;;;;;;;;;;5051639;28;20401;-50
2023/07/29 04:41:47;;;;;;;44.43;9.90;;;;;;;;;;5051188;28;20381;-50
2023/07/29 04:44:13;;;;;;;11.20;8.40;;;;;;;;;;5050313;28;20395;-52
2023/07/29 04:46:39;;;;;;;25.07;8.67;;;;;;;;;;5048810;28;20423;-52
2023/07/29 04:49:05;;;;;;;11.63;8.93;;;;;;;;;;5051711;28;20390;-52
2023/07/29 04:51:31;;;;;;;9.23;8.40;;;;;;;;;;5051263;28;20554;-52
2023/07/29 04:53:58;;;;;;;8.80;8.00;;;;;;;;;;5051639;28;20412;-52
2023/07/29 04:56:24;;;;;;;9.47;8.57;;;;;;;;;;5051465;28;20905;-51
2023/07/29 04:58:49;;;;;;;8.00;7.30;;;;;;;;;;5051579;28;20410;-51
2023/07/29 05:01:15;;;;;;;8.23;7.30;;;;;;;;;;5051226;28;20531;-52
2023/07/29 05:03:41;;;;;;;7.80;7.07;;;;;;;;;;5051423;28;20416;-50
2023/07/29 05:06:07;;;;;;;9.43;8.23;;;;;;;;;;5051527;28;20448;-52
2023/07/29 05:08:33;;;;;;;8.43;7.70;;;;;;;;;;5051471;28;20420;-50
2023/07/29 05:10:59;;;;;;;8.57;7.87;;;;;;;;;;5050014;28;20443;-50
2023/07/29 05:13:25;;;;;;;9.17;8.27;;;;;;;;;;5051306;28;20973;-49
2023/07/29 05:15:51;;;;;;;8.27;7.57;;;;;;;;;;5051385;28;21047;-52
2023/07/29 05:18:18;;;;;;;11.93;8.90;;;;;;;;;;5051532;28;20405;-51
2023/07/29 05:20:44;;;;;;;12.17;9.40;;;;;;;;;;5051260;28;20429;-52
2023/07/29 05:23:10;;;;;;;14.40;10.50;;;;;;;;;;5051391;28;20393;-51
2023/07/29 05:25:36;;;;;;;18.20;12.23;;;;;;;;;;5050075;28;20408;-51
2023/07/29 05:28:02;;;;;;;11.07;9.97;;;;;;;;;;5051374;28;20901;-51
2023/07/29 05:30:30;;;;;;;17.33;12.30;;;;;;;;;;5050849;28;20809;-52
2023/07/29 05:32:57;;;;;;;18.20;12.37;;;;;;;;;;5051257;28;20971;-51
2023/07/29 05:35:23;;;;;;;14.63;11.40;;;;;;;;;;5051235;28;20864;-51
2023/07/29 05:37:49;;;;;;;15.37;12.10;;;;;;;;;;5051420;28;20406;-51
2023/07/29 05:40:15;;;;;;;18.30;14.20;;;;;;;;;;5049864;28;20922;-52
2023/07/29 05:42:41;;;;;;;25.73;14.17;;;;;;;;;;5051514;28;20424;-51
2023/07/29 05:45:07;;;;;;;20.30;13.80;;;;;;;;;;5051460;28;20428;-51
2023/07/29 05:47:33;;;;;;;16.50;13.73;;;;;;;;;;5051117;28;20905;-52
2023/07/29 05:50:04;;;;;;;17.07;13.57;;;;;;;;;;5050782;28;20505;-52
2023/07/29 05:52:30;;;;;;;21.00;15.60;;;;;;;;;;5050833;28;20586;-52
2023/07/29 05:54:56;;;;;;;18.47;12.97;;;;;;;;;;5054644;28;20408;-51
2023/07/29 05:57:22;;;;;;;19.20;13.60;;;;;;;;;;5052979;28;20523;-51
2023/07/29 05:59:48;;;;;;;19.10;14.77;;;;;;;;;;5054304;28;20402;-51
2023/07/29 06:02:14;;;;;;;19.57;15.70;;;;;;;;;;5054446;28;20425;-50
2023/07/29 06:04:40;;;;;;;21.40;14.23;;;;;;;;;;5053921;28;20424;-52
2023/07/29 06:07:06;;;;;;;18.17;13.87;;;;;;;;;;5053391;28;20478;-52
2023/07/29 06:09:32;;;;;;;20.50;14.20;;;;;;;;;;5053870;28;20774;-51
2023/07/29 06:11:58;;;;;;;22.27;13.73;;;;;;;;;;5053716;28;20574;-51
2023/07/29 06:14:24;;;;;;;19.10;14.00;;;;;;;;;;5053881;28;20409;-51
2023/07/29 06:16:50;;;;;;;18.70;13.37;;;;;;;;;;5054178;28;20399;-51
2023/07/29 06:19:16;;;;;;;18.50;13.43;;;;;;;;;;5054014;28;20433;-50
2023/07/29 06:21:42;;;;;;;16.43;13.47;;;;;;;;;;5052767;28;20415;-50
2023/07/29 06:24:08;;;;;;;17.90;13.33;;;;;;;;;;5053743;28;20423;-50
2023/07/29 06:26:34;;;;;;;19.23;14.27;;;;;;;;;;5049518;28;20420;-51
2023/07/29 06:29:00;;;;;;;19.13;15.03;;;;;;;;;;5051096;28;20418;-49
2023/07/29 06:31:26;;;;;;;16.27;14.00;;;;;;;;;;5053525;28;20434;-51
2023/07/29 06:33:52;;;;;;;16.10;11.97;;;;;;;;;;5054107;28;20415;-51
2023/07/29 06:36:18;;;;;;;17.20;12.27;;;;;;;;;;5053125;28;20412;-52
2023/07/29 06:38:44;;;;;;;12.17;10.53;;;;;;;;;;5054066;28;20407;-51
2023/07/29 06:41:10;;;;;;;10.37;9.33;;;;;;;;;;5053607;28;20406;-50
2023/07/29 06:43:36;;;;;;;10.13;9.13;;;;;;;;;;5053439;28;20743;-51
2023/07/29 06:46:02;;;;;;;13.03;8.57;;;;;;;;;;5051997;28;20934;-50
2023/07/29 06:48:28;;;;;;;9.87;7.10;;;;;;;;;;5051038;28;20419;-48
2023/07/29 06:50:55;;;;;;;9.03;8.00;;;;;;;;;;5052835;28;20415;-51
2023/07/29 06:53:22;;;;;;;19.57;7.07;;;;;;;;;;5051243;28;20894;-49
2023/07/29 06:55:48;;;;;;;9.10;7.13;;;;;;;;;;5053413;28;20499;-51
2023/07/29 06:58:13;;;;;;;8.43;6.63;;;;;;;;;;5047743;28;20427;-49
2023/07/29 07:00:39;;;;;;;10.87;6.30;;;;;;;;;;5045982;28;20406;-51
2023/07/29 07:03:06;;;;;;;6.20;5.60;;;;;;;;;;5052238;28;20416;-51
2023/07/29 07:05:31;;;;;;;6.40;5.80;;;;;;;;;;5053403;28;20470;-51
2023/07/29 07:07:57;;;;;;;4.90;4.50;;;;;;;;;;5053673;28;20871;-50
2023/07/29 07:10:23;;;;;;;5.23;4.83;;;;;;;;;;5053060;28;20822;-51
2023/07/29 07:12:49;;;;;;;5.50;4.67;;;;;;;;;;5053412;28;20908;-52
2023/07/29 07:15:15;;;;;;;5.43;4.90;;;;;;;;;;5053534;28;20761;-52
2023/07/29 07:17:42;;;;;;;4.40;4.10;;;;;;;;;;5052717;28;20456;-52
2023/07/29 07:20:08;;;;;;;6.43;4.73;;;;;;;;;;5052974;28;20470;-52
2023/07/29 07:22:34;;;;;;;5.63;4.90;;;;;;;;;;5053216;28;20932;-49
2023/07/29 07:25:00;;;;;;;7.37;4.60;;;;;;;;;;5053026;28;20466;-51
2023/07/29 07:27:26;;;;;;;5.10;4.60;;;;;;;;;;5053235;28;20910;-51
2023/07/29 07:29:52;;;;;;;4.50;4.10;;;;;;;;;;5053120;28;20960;-51
2023/07/29 07:32:18;;;;;;;4.47;4.07;;;;;;;;;;5043585;28;20967;-50
2023/07/29 07:34:44;;;;;;;5.77;4.10;;;;;;;;;;5052955;28;20399;-49
2023/07/29 07:37:09;;;;;;;7.00;4.80;;;;;;;;;;5049449;28;20408;-51
2023/07/29 07:39:35;;;;;;;4.70;3.60;;;;;;;;;;5046532;28;20432;-49
2023/07/29 07:42:01;;;;;;;5.83;4.67;;;;;;;;;;5047386;28;20496;-51
2023/07/29 07:44:27;;;;;;;11.83;4.00;;;;;;;;;;5050040;28;20421;-51
2023/07/29 07:46:53;;;;;;;7.40;4.00;;;;;;;;;;5053369;28;20404;-48
2023/07/29 07:49:19;;;;;;;4.57;3.40;;;;;;;;;;5052424;28;20463;-48
2023/07/29 07:51:45;;;;;;;4.03;3.30;;;;;;;;;;5051738;28;20823;-49
2023/07/29 07:54:11;;;;;;;11.30;3.63;;;;;;;;;;5047196;28;20899;-50
2023/07/29 07:56:37;;;;;;;4.97;3.60;;;;;;;;;;5052604;28;20412;-48
2023/07/29 07:59:03;;;;;;;3.93;3.20;;;;;;;;;;5051367;28;20436;-47
2023/07/29 08:01:35;;;;;;;5.03;3.20;;;;;;;;;;5055101;28;20815;-48
2023/07/29 08:04:01;;;;;;;4.13;3.83;;;;;;;;;;5047770;28;20429;-47
2023/07/29 08:06:27;;;;;;;3.90;3.47;;;;;;;;;;5050591;28;20955;-46
2023/07/29 08:08:53;;;;;;;4.30;3.87;;;;;;;;;;5052292;28;20976;-48
2023/07/29 08:11:19;;;;;;;4.03;2.80;;;;;;;;;;5051948;28;20425;-50
2023/07/29 08:13:45;;;;;;;10.77;3.40;;;;;;;;;;5051228;28;20443;-47
2023/07/29 08:16:11;;;;;;;5.63;3.10;;;;;;;;;;5051437;28;20450;-48
2023/07/29 08:18:37;;;;;;;3.63;2.57;;;;;;;;;;5052611;28;20420;-48
2023/07/29 08:21:03;;;;;;;2.97;2.77;;;;;;;;;;5051696;28;20448;-48
2023/07/29 08:23:30;;;;;;;3.30;2.80;;;;;;;;;;5051852;28;20904;-48
2023/07/29 08:26:01;;;;;;;5.20;2.63;;;;;;;;;;5052178;28;20398;-50
2023/07/29 08:28:27;;;;;;;3.10;2.80;;;;;;;;;;5052017;28;20409;-48
2023/07/29 08:30:53;;;;;;;3.40;2.10;;;;;;;;;;5051320;28;20801;-51
2023/07/29 08:33:18;;;;;;;5.07;2.60;;;;;;;;;;5064153;28;20456;-47
2023/07/29 08:35:44;;;;;;;19.57;3.27;;;;;;;;;;5063870;28;20909;-47
2023/07/29 08:38:10;;;;;;;7.33;3.23;;;;;;;;;;5055322;28;20892;-47
2023/07/29 08:40:39;;;;;;;4.30;2.43;;;;;;;;;;5071265;28;20841;-48
2023/07/29 08:43:05;;;;;;;3.30;2.30;;;;;;;;;;5051943;28;20940;-47
2023/07/29 08:45:34;;;;;;;2.70;1.70;;;;;;;;;;5051225;28;20440;-47
2023/07/29 08:48:03;;;;;;;2.90;2.10;;;;;;;;;;5048988;28;20519;-47
2023/07/29 08:50:30;;;;;;;2.70;1.80;;;;;;;;;;5051259;28;20452;-49
2023/07/29 08:52:56;;;;;;;3.20;1.77;;;;;;;;;;5051473;28;20461;-47
2023/07/29 08:55:22;;;;;;;4.40;1.90;;;;;;;;;;5051575;28;20499;-47
2023/07/29 08:57:48;;;;;;;2.80;1.60;;;;;;;;;;5051819;28;20404;-47
2023/07/29 09:00:15;;;;;;;3.20;1.70;;;;;;;;;;5051195;28;20428;-47
2023/07/29 09:02:41;;;;;;;4.93;1.87;;;;;;;;;;5050506;28;20924;-49
2023/07/29 09:05:07;;;;;;;3.00;1.63;;;;;;;;;;5051355;28;20409;-47
2023/07/29 09:07:34;;;;;;;2.53;1.70;;;;;;;;;;5051760;28;20889;-48
2023/07/29 09:10:00;;;;;;;1.60;1.50;;;;;;;;;;5051998;28;20440;-48
2023/07/29 09:12:26;;;;;;;5.60;1.87;;;;;;;;;;5051512;28;20570;-49
2023/07/29 09:14:54;;;;;;;1.60;1.50;;;;;;;;;;5051643;28;20397;-48
2023/07/29 09:17:21;;;;;;;2.50;2.00;;;;;;;;;;5051635;28;20483;-47
2023/07/29 09:19:48;;;;;;;5.43;2.03;;;;;;;;;;5051183;28;20425;-47
2023/07/29 09:22:18;;;;;;;2.67;1.87;;;;;;;;;;5051514;28;20927;-47
2023/07/29 09:24:45;;;;;;;24.10;2.33;;;;;;;;;;5043008;28;20846;-47
2023/07/29 09:27:23;;;;;;;2.10;2.00;;;;;;;;;;5051908;28;20506;-48
2023/07/29 09:29:49;;;;;;;1.77;1.67;;;;;;;;;;5048189;28;20928;-50
2023/07/29 09:32:19;;;;;;;1.50;1.40;;;;;;;;;;5055379;28;20466;-47
2023/07/29 09:34:45;;;;;;;1.60;1.50;;;;;;;;;;5055640;28;20405;-47
2023/07/29 09:37:15;;;;;;;2.53;1.80;;;;;;;;;;5055221;28;20405;-49
2023/07/29 09:39:44;;;;;;;1.77;1.63;;;;;;;;;;5047541;28;20425;-47
2023/07/29 09:42:12;;;;;;;3.10;1.60;;;;;;;;;;5053638;28;20412;-47
2023/07/29 09:44:38;;;;;;;4.43;1.60;;;;;;;;;;5051744;28;20554;-48
2023/07/29 09:47:04;;;;;;;1.57;1.27;;;;;;;;;;5055230;28;20437;-49
2023/07/29 09:49:36;;;;;;;2.23;1.40;;;;;;;;;;5054760;28;20519;-47
2023/07/29 09:52:03;;;;;;;1.80;1.70;;;;;;;;;;5055059;28;20496;-48
2023/07/29 09:54:31;;;;;;;2.13;1.70;;;;;;;;;;5053406;28;20511;-47
2023/07/29 09:56:57;;;;;;;8.83;2.03;;;;;;;;;;5055312;28;20454;-48
2023/07/29 09:59:24;;;;;;;3.83;1.53;;;;;;;;;;5054887;28;20428;-48
2023/07/29 10:01:50;;;;;;;2.50;1.70;;;;;;;;;;5054584;28;20431;-48
2023/07/29 10:04:16;;;;;;;3.57;1.77;;;;;;;;;;5054550;28;20766;-47
2023/07/29 10:06:42;;;;;;;1.87;1.77;;;;;;;;;;5054640;28;20416;-47
2023/07/29 10:09:11;;;;;;;5.60;2.00;;;;;;;;;;5053156;28;20415;-47
2023/07/29 10:11:38;;;;;;;2.40;2.30;;;;;;;;;;5054113;28;20588;-47
2023/07/29 10:14:04;;;;;;;2.03;1.93;;;;;;;;;;5054511;28;20441;-48
2023/07/29 10:16:30;;;;;;;2.20;1.93;;;;;;;;;;5054557;28;20402;-49
2023/07/29 10:18:56;;;;;;;6.00;2.03;;;;;;;;;;5054501;28;20405;-51
2023/07/29 10:21:23;;;;;;;2.23;1.47;;;;;;;;;;5054021;28;20501;-49
2023/07/29 10:23:50;;;;;;;1.73;1.63;;;;;;;;;;5052769;28;20786;-49
2023/07/29 10:26:17;;;;;;;1.63;1.40;;;;;;;;;;5054162;28;20416;-48
2023/07/29 10:28:47;;;;;;;3.10;1.80;;;;;;;;;;5054271;28;20413;-51
2023/07/29 10:31:13;;;;;;;2.43;1.70;;;;;;;;;;5054054;28;20512;-47
2023/07/29 10:33:39;;;;;;;3.23;1.50;;;;;;;;;;5042808;28;21032;-51
2023/07/29 10:36:05;;;;;;;7.57;1.50;;;;;;;;;;5049416;28;20435;-47
2023/07/29 10:38:31;;;;;;;1.57;1.30;;;;;;;;;;5052278;28;20401;-49
2023/07/29 10:41:00;;;;;;;1.43;1.33;;;;;;;;;;5053651;28;20437;-47
2023/07/29 10:43:33;;;;;;;2.10;1.90;;;;;;;;;;5049169;28;20467;-50
2023/07/29 10:46:18;;;;;;;3.57;1.60;;;;;;;;;;5053958;28;20512;-48
2023/07/29 10:48:45;;;;;;;1.90;1.80;;;;;;;;;;5046504;28;20413;-47
2023/07/29 10:51:22;;;;;;;2.90;1.40;;;;;;;;;;5053285;28;20467;-48
2023/07/29 10:53:48;;;;;;;1.87;1.77;;;;;;;;;;5046015;28;20421;-48
2023/07/29 10:56:25;;;;;;;1.70;1.60;;;;;;;;;;5053690;28;20413;-48
2023/07/29 10:58:51;;;;;;;10.90;1.70;;;;;;;;;;5053851;28;20963;-48
2023/07/29 11:01:27;;;;;;;2.00;1.80;;;;;;;;;;5053402;28;20418;-48
2023/07/29 11:04:25;;;;;;;6.27;1.97;;;;;;;;;;5033678;28;20401;-48
2023/07/29 11:07:03;;;;;;;6.07;1.67;;;;;;;;;;5033802;28;20457;-48
2023/07/29 11:09:42;;;;;;;1.83;1.47;;;;;;;;;;5033678;28;20473;-48
2023/07/29 11:12:27;;;;;;;2.60;1.60;;;;;;;;;;5033401;28;20461;-51
2023/07/29 11:14:53;;;;;;;1.93;1.70;;;;;;;;;;5053274;28;20405;-48
2023/07/29 11:17:19;;;;;;;5.33;1.47;;;;;;;;;;5053464;28;20893;-49
2023/07/29 11:19:46;;;;;;;1.83;1.73;;;;;;;;;;5053016;28;20421;-50
2023/07/29 11:22:12;;;;;;;8.10;2.00;;;;;;;;;;5053308;28;20425;-50
2023/07/29 11:24:38;;;;;;;3.73;1.77;;;;;;;;;;5052857;28;20421;-48
2023/07/29 11:27:04;;;;;;;1.90;1.80;;;;;;;;;;5053315;28;20448;-50
2023/07/29 11:29:30;;;;;;;1.97;1.80;;;;;;;;;;5053166;28;20426;-50
2023/07/29 11:31:56;;;;;;;4.73;1.80;;;;;;;;;;5052876;28;20495;-48
2023/07/29 11:34:32;;;;;;;3.10;1.73;;;;;;;;;;5051784;28;20460;-47
2023/07/29 11:36:57;;;;;;;1.60;1.50;;;;;;;;;;5052938;28;20413;-48
2023/07/29 11:39:23;;;;;;;3.33;1.67;;;;;;;;;;5051395;28;20448;-49
2023/07/29 11:41:49;;;;;;;3.00;1.33;;;;;;;;;;5052803;28;20460;-50
2023/07/29 11:44:19;;;;;;;4.93;1.47;;;;;;;;;;5045022;28;20437;-48
2023/07/29 11:46:45;;;;;;;1.90;1.47;;;;;;;;;;5051857;28;20467;-47
2023/07/29 11:49:11;;;;;;;1.63;1.53;;;;;;;;;;5052492;28;20532;-48
2023/07/29 11:51:37;;;;;;;3.37;1.67;;;;;;;;;;5050949;28;20460;-48
2023/07/29 11:54:03;;;;;;;1.70;1.60;;;;;;;;;;5052439;28;20413;-47
2023/07/29 11:56:32;;;;;;;2.20;2.00;;;;;;;;;;5051645;28;20409;-47
2023/07/29 11:58:58;;;;;;;1.53;1.43;;;;;;;;;;5052579;28;20420;-47
2023/07/29 12:01:24;;;;;;;13.33;1.90;;;;;;;;;;5051757;28;20506;-48
2023/07/29 12:03:51;;;;;;;3.00;1.60;;;;;;;;;;5052282;28;20445;-47
2023/07/29 12:06:17;;;;;;;2.60;1.40;;;;;;;;;;5052295;28;20412;-49
2023/07/29 12:08:43;;;;;;;2.20;1.87;;;;;;;;;;5050703;28;20487;-48
2023/07/29 12:11:10;;;;;;;5.77;1.60;;;;;;;;;;5048152;28;20413;-47
2023/07/29 12:13:39;;;;;;;1.93;1.83;;;;;;;;;;5052152;28;20838;-48
2023/07/29 12:16:05;;;;;;;7.60;2.37;;;;;;;;;;5051340;28;20406;-47
2023/07/29 12:18:31;;;;;;;1.50;1.40;;;;;;;;;;5052062;28;20413;-51
2023/07/29 12:20:57;;;;;;;5.10;1.70;;;;;;;;;;5051819;28;20592;-49
2023/07/29 12:23:27;;;;;;;4.53;1.97;;;;;;;;;;5052004;28;20508;-49
2023/07/29 12:25:57;;;;;;;4.43;1.90;;;;;;;;;;5052295;28;20463;-48
2023/07/29 12:28:23;;;;;;;4.20;1.47;;;;;;;;;;5051138;28;20773;-48
2023/07/29 12:30:54;;;;;;;10.43;2.13;;;;;;;;;;5051826;28;20837;-48
2023/07/29 12:33:33;;;;;;;1.50;1.40;;;;;;;;;;5051847;28;20461;-48
2023/07/29 12:35:59;;;;;;;2.07;1.70;;;;;;;;;;5052124;28;20448;-48
2023/07/29 12:38:28;;;;;;;3.40;1.70;;;;;;;;;;5051955;28;20413;-48
2023/07/29 12:40:54;;;;;;;1.87;1.60;;;;;;;;;;5051530;28;20454;-48
2023/07/29 12:43:20;;;;;;;4.73;2.00;;;;;;;;;;5051662;28;20453;-48
2023/07/29 12:45:46;;;;;;;2.03;1.90;;;;;;;;;;5051587;28;20420;-48
2023/07/29 12:48:12;;;;;;;1.47;1.37;;;;;;;;;;5051686;28;20409;-48
2023/07/29 12:50:38;;;;;;;3.23;1.60;;;;;;;;;;5051493;28;20449;-48
2023/07/29 12:53:08;;;;;;;4.03;2.33;;;;;;;;;;5051947;28;20844;-48
2023/07/29 12:55:34;;;;;;;2.00;1.70;;;;;;;;;;5051576;28;20418;-50
2023/07/29 12:58:00;;;;;;;1.73;1.63;;;;;;;;;;5050938;28;20444;-50
2023/07/29 13:00:26;;;;;;;2.27;1.93;;;;;;;;;;5051186;28;20463;-51
2023/07/29 13:02:52;;;;;;;1.93;1.83;;;;;;;;;;5051293;28;20409;-50
2023/07/29 13:05:18;;;;;;;1.87;1.77;;;;;;;;;;5051415;28;20412;-48
2023/07/29 13:07:44;;;;;;;4.07;1.63;;;;;;;;;;5051557;28;20423;-48
2023/07/29 13:10:11;;;;;;;4.40;2.00;;;;;;;;;;5050896;28;20421;-48
2023/07/29 13:12:37;;;;;;;5.87;2.00;;;;;;;;;;5051176;28;20448;-48
2023/07/29 13:15:03;;;;;;;4.20;1.70;;;;;;;;;;5051279;28;20880;-48
2023/07/29 13:17:29;;;;;;;3.10;1.93;;;;;;;;;;5047323;28;20413;-48
2023/07/29 13:19:55;;;;;;;2.10;2.00;;;;;;;;;;5051102;28;20956;-48
2023/07/29 13:22:21;;;;;;;2.40;2.00;;;;;;;;;;5058650;28;20446;-48
2023/07/29 13:24:47;;;;;;;2.20;2.00;;;;;;;;;;5050638;28;20455;-48
2023/07/29 13:27:13;;;;;;;3.43;1.50;;;;;;;;;;5051356;28;20448;-48
2023/07/29 13:29:39;;;;;;;1.87;1.77;;;;;;;;;;5051134;28;20433;-52
2023/07/29 13:32:06;;;;;;;13.93;2.37;;;;;;;;;;5051542;28;20818;-48
2023/07/29 13:34:32;;;;;;;1.90;1.80;;;;;;;;;;5051179;28;20967;-49
2023/07/29 13:36:58;;;;;;;2.30;2.03;;;;;;;;;;5051262;28;20444;-48
2023/07/29 13:39:24;;;;;;;2.10;1.93;;;;;;;;;;5050456;28;20461;-49
2023/07/29 13:41:50;;;;;;;2.10;1.90;;;;;;;;;;5050970;28;20474;-50
2023/07/29 13:44:16;;;;;;;2.30;2.10;;;;;;;;;;5047007;28;20535;-48
2023/07/29 13:46:42;;;;;;;2.10;1.90;;;;;;;;;;5051148;28;20775;-48
2023/07/29 13:49:07;;;;;;;2.50;2.30;;;;;;;;;;5051352;28;20763;-48
2023/07/29 13:51:33;;;;;;;2.43;2.17;;;;;;;;;;5050646;28;20440;-47
2023/07/29 13:53:59;;;;;;;2.50;1.93;;;;;;;;;;5050554;28;20414;-48
2023/07/29 13:56:25;;;;;;;1.90;1.80;;;;;;;;;;5051049;28;20409;-48
2023/07/29 13:58:51;;;;;;;2.47;2.27;;;;;;;;;;5051039;28;20409;-48
2023/07/29 14:01:17;;;;;;;3.27;2.10;;;;;;;;;;5050783;28;20466;-51
2023/07/29 14:03:43;;;;;;;2.43;2.20;;;;;;;;;;5054045;28;20408;-48
2023/07/29 14:06:09;;;;;;;7.60;1.90;;;;;;;;;;5055046;28;20408;-48
2023/07/29 14:08:35;;;;;;;2.30;2.10;;;;;;;;;;5050405;28;20504;-47
2023/07/29 14:11:01;;;;;;;3.00;2.07;;;;;;;;;;5050613;28;20456;-48
2023/07/29 14:13:27;;;;;;;3.90;2.40;;;;;;;;;;5051357;28;20460;-48
2023/07/29 14:15:53;;;;;;;3.50;2.43;;;;;;;;;;5054619;28;20419;-47
2023/07/29 14:18:19;;;;;;;1.90;1.80;;;;;;;;;;5054769;28;20420;-49
2023/07/29 14:20:46;;;;;;;3.70;2.37;;;;;;;;;;5054233;28;20433;-48
2023/07/29 14:23:12;;;;;;;5.80;2.63;;;;;;;;;;5052643;28;20436;-48
2023/07/29 14:25:38;;;;;;;5.20;2.60;;;;;;;;;;5054219;28;20853;-50
2023/07/29 14:28:04;;;;;;;2.33;2.17;;;;;;;;;;5053347;28;20411;-51
2023/07/29 14:30:30;;;;;;;2.53;2.10;;;;;;;;;;5054156;28;20915;-48
2023/07/29 14:32:55;;;;;;;3.60;2.60;;;;;;;;;;5054281;28;20457;-48
2023/07/29 14:35:21;;;;;;;3.20;3.00;;;;;;;;;;5054238;28;20417;-48
2023/07/29 14:37:47;;;;;;;2.90;2.47;;;;;;;;;;5054673;28;20417;-47